Seattle, Washington
Current Conditions -  °F | °C
As of 12:53 PM on Sunday 21 Dec 2014 (Local Time) from KBFI Reporting Station
Broken Clouds Broken Clouds  
Wind Chill: 14°   Ceiling: 2400
Heat Index: 14°   Visibility: 10mi
Dew Point:   Wind: 10mph
Humidity: 67%   Direction: 210°SSW
Pressure: 29.94"   Gusts: 18mph
Location:  47.6°N, 122.32°W
Report Text: KBFI 212053Z 21009G16KT 10SM BKN024 14/08 A2994 RMK AO2 SLP140 T01390078 51007
Loading
Personal Weather Stations






























Interactive Weather Map New forecast layout! Learn more

10-Day Weather Forecast

Advertisements
Track Severe Weather on mobile